sensor_id;sensor_type;location;lat;lon;timestamp;pressure;altitude;pressure_sealevel;temperature;humidity
1616;BME280;801;47.982;7.810;2023-09-19T00:00:19;98425.47;;;18.21;100.00
1616;BME280;801;47.982;7.810;2023-09-19T00:02:52;98425.47;;;18.21;100.00
1616;BME280;801;47.982;7.810;2023-09-19T00:05:18;98422.25;;;18.19;100.00
1616;BME280;801;47.982;7.810;2023-09-19T00:07:49;98433.97;;;18.20;100.00
1616;BME280;801;47.982;7.810;2023-09-19T00:10:17;98430.31;;;18.24;100.00
1616;BME280;801;47.982;7.810;2023-09-19T00:12:45;98424.03;;;18.24;100.00
1616;BME280;801;47.982;7.810;2023-09-19T00:15:14;98431.06;;;18.16;100.00
1616;BME280;801;47.982;7.810;2023-09-19T00:17:48;98433.31;;;18.23;100.00
1616;BME280;801;47.982;7.810;2023-09-19T00:20:18;98420.81;;;18.13;100.00
1616;BME280;801;47.982;7.810;2023-09-19T00:22:52;98421.13;;;18.12;100.00
1616;BME280;801;47.982;7.810;2023-09-19T00:25:24;98425.31;;;18.18;100.00
1616;BME280;801;47.982;7.810;2023-09-19T00:27:54;98428.16;;;18.13;100.00
1616;BME280;801;47.982;7.810;2023-09-19T00:30:22;98433.44;;;18.09;100.00
1616;BME280;801;47.982;7.810;2023-09-19T00:32:50;98428.66;;;18.15;100.00
1616;BME280;801;47.982;7.810;2023-09-19T00:35:20;98435.75;;;18.24;100.00
1616;BME280;801;47.982;7.810;2023-09-19T00:37:49;98438.09;;;18.09;100.00
1616;BME280;801;47.982;7.810;2023-09-19T00:40:17;98428.97;;;18.13;100.00
1616;BME280;801;47.982;7.810;2023-09-19T00:42:44;98427.88;;;18.23;100.00
1616;BME280;801;47.982;7.810;2023-09-19T00:45:16;98425.16;;;18.23;100.00
1616;BME280;801;47.982;7.810;2023-09-19T00:47:48;98427.88;;;18.23;100.00
1616;BME280;801;47.982;7.810;2023-09-19T00:50:17;98436.81;;;18.15;100.00
1616;BME280;801;47.982;7.810;2023-09-19T00:52:47;98432.03;;;18.20;100.00
1616;BME280;801;47.982;7.810;2023-09-19T00:55:16;98430.78;;;18.27;100.00
1616;BME280;801;47.982;7.810;2023-09-19T00:57:45;98434.53;;;18.08;100.00
1616;BME280;801;47.982;7.810;2023-09-19T01:00:13;98432.16;;;18.07;100.00
1616;BME280;801;47.982;7.810;2023-09-19T01:02:41;98440.66;;;18.14;100.00
1616;BME280;801;47.982;7.810;2023-09-19T01:05:11;98435.84;;;18.11;100.00
1616;BME280;801;47.982;7.810;2023-09-19T01:07:39;98442.63;;;18.22;100.00
1616;BME280;801;47.982;7.810;2023-09-19T01:10:07;98445.13;;;18.10;100.00
1616;BME280;801;47.982;7.810;2023-09-19T01:12:45;98444.31;;;18.09;100.00
1616;BME280;801;47.982;7.810;2023-09-19T01:15:33;98448.63;;;18.10;100.00
1616;BME280;801;47.982;7.810;2023-09-19T01:18:20;98456.00;;;18.10;100.00
1616;BME280;801;47.982;7.810;2023-09-19T01:21:00;98457.31;;;18.21;100.00
1616;BME280;801;47.982;7.810;2023-09-19T01:23:52;98453.66;;;18.25;100.00
1616;BME280;801;47.982;7.810;2023-09-19T01:26:33;98453.97;;;18.24;100.00
1616;BME280;801;47.982;7.810;2023-09-19T01:29:26;98460.19;;;18.16;100.00
1616;BME280;801;47.982;7.810;2023-09-19T01:32:11;98453.75;;;18.12;100.00
1616;BME280;801;47.982;7.810;2023-09-19T01:34:47;98459.84;;;18.09;100.00
1616;BME280;801;47.982;7.810;2023-09-19T01:37:19;98460.53;;;18.23;100.00
1616;BME280;801;47.982;7.810;2023-09-19T01:39:53;98467.84;;;18.14;100.00
1616;BME280;801;47.982;7.810;2023-09-19T01:42:28;98453.50;;;18.22;100.00
1616;BME280;801;47.982;7.810;2023-09-19T01:45:11;98451.34;;;18.10;100.00
1616;BME280;801;47.982;7.810;2023-09-19T01:48:17;98461.44;;;18.10;100.00
1616;BME280;801;47.982;7.810;2023-09-19T01:50:56;98460.78;;;18.13;100.00
1616;BME280;801;47.982;7.810;2023-09-19T01:53:35;98469.59;;;18.10;100.00
1616;BME280;801;47.982;7.810;2023-09-19T01:56:05;98464.63;;;18.12;100.00
1616;BME280;801;47.982;7.810;2023-09-19T01:58:41;98467.41;;;18.20;100.00
1616;BME280;801;47.982;7.810;2023-09-19T02:01:16;98471.84;;;18.16;100.00
1616;BME280;801;47.982;7.810;2023-09-19T02:03:46;98468.19;;;18.21;100.00
1616;BME280;801;47.982;7.810;2023-09-19T02:06:14;98489.59;;;18.14;100.00
1616;BME280;801;47.982;7.810;2023-09-19T02:08:41;98463.69;;;18.16;100.00
1616;BME280;801;47.982;7.810;2023-09-19T02:11:08;98483.38;;;18.13;100.00
1616;BME280;801;47.982;7.810;2023-09-19T02:13:34;98473.28;;;18.14;100.00
1616;BME280;801;47.982;7.810;2023-09-19T02:18:59;98471.28;;;17.97;100.00
1616;BME280;801;47.982;7.810;2023-09-19T02:21:26;98465.78;;;17.88;100.00
1616;BME280;801;47.982;7.810;2023-09-19T02:23:54;98469.53;;;17.78;100.00
1616;BME280;801;47.982;7.810;2023-09-19T02:26:32;98482.94;;;17.75;100.00
1616;BME280;801;47.982;7.810;2023-09-19T02:29:17;98480.13;;;17.80;100.00
1616;BME280;801;47.982;7.810;2023-09-19T02:31:44;98476.19;;;17.86;100.00
1616;BME280;801;47.982;7.810;2023-09-19T02:34:13;98496.63;;;17.83;100.00
1616;BME280;801;47.982;7.810;2023-09-19T02:36:42;98492.91;;;17.79;100.00
1616;BME280;801;47.982;7.810;2023-09-19T02:39:12;98499.75;;;17.77;100.00
1616;BME280;801;47.982;7.810;2023-09-19T02:41:44;98495.03;;;17.82;100.00
1616;BME280;801;47.982;7.810;2023-09-19T02:44:11;98498.84;;;17.81;100.00
1616;BME280;801;47.982;7.810;2023-09-19T02:46:39;98493.28;;;17.64;100.00
1616;BME280;801;47.982;7.810;2023-09-19T02:49:08;98487.78;;;17.55;100.00
1616;BME280;801;47.982;7.810;2023-09-19T02:51:39;98477.84;;;17.51;100.00
1616;BME280;801;47.982;7.810;2023-09-19T02:54:17;98476.66;;;17.43;100.00
1616;BME280;801;47.982;7.810;2023-09-19T02:57:03;98486.09;;;17.46;100.00
1616;BME280;801;47.982;7.810;2023-09-19T02:59:40;98473.41;;;17.55;100.00
1616;BME280;801;47.982;7.810;2023-09-19T03:02:10;98471.41;;;17.47;100.00
1616;BME280;801;47.982;7.810;2023-09-19T03:04:37;98480.84;;;17.49;100.00
1616;BME280;801;47.982;7.810;2023-09-19T03:07:05;98489.13;;;17.44;100.00
1616;BME280;801;47.982;7.810;2023-09-19T03:09:32;98483.94;;;17.56;100.00
1616;BME280;801;47.982;7.810;2023-09-19T03:11:59;98491.28;;;17.56;100.00
1616;BME280;801;47.982;7.810;2023-09-19T03:14:26;98505.06;;;17.59;100.00
1616;BME280;801;47.982;7.810;2023-09-19T03:17:14;98491.66;;;17.63;100.00
1616;BME280;801;47.982;7.810;2023-09-19T03:19:46;98513.09;;;17.64;100.00
1616;BME280;801;47.982;7.810;2023-09-19T03:22:15;98501.53;;;17.59;100.00
1616;BME280;801;47.982;7.810;2023-09-19T03:24:43;98497.88;;;17.63;100.00
1616;BME280;801;47.982;7.810;2023-09-19T03:27:11;98503.53;;;17.67;100.00
1616;BME280;801;47.982;7.810;2023-09-19T03:29:43;98509.88;;;17.62;100.00
1616;BME280;801;47.982;7.810;2023-09-19T03:32:17;98501.72;;;17.62;100.00
1616;BME280;801;47.982;7.810;2023-09-19T03:34:58;98499.31;;;17.61;100.00
1616;BME280;801;47.982;7.810;2023-09-19T03:37:31;98498.88;;;17.68;100.00
1616;BME280;801;47.982;7.810;2023-09-19T03:39:59;98495.38;;;17.67;100.00
1616;BME280;801;47.982;7.810;2023-09-19T03:42:30;98492.03;;;17.70;100.00
1616;BME280;801;47.982;7.810;2023-09-19T03:45:00;98499.88;;;17.72;100.00
1616;BME280;801;47.982;7.810;2023-09-19T03:47:31;98486.06;;;17.59;100.00
1616;BME280;801;47.982;7.810;2023-09-19T03:53:19;98474.00;;;17.52;100.00
1616;BME280;801;47.982;7.810;2023-09-19T03:55:59;98492.72;;;17.53;100.00
1616;BME280;801;47.982;7.810;2023-09-19T03:58:27;98496.44;;;17.57;100.00
1616;BME280;801;47.982;7.810;2023-09-19T04:00:58;98503.47;;;17.58;100.00
1616;BME280;801;47.982;7.810;2023-09-19T04:03:28;98497.22;;;17.58;100.00
1616;BME280;801;47.982;7.810;2023-09-19T04:06:05;98485.13;;;17.64;100.00
1616;BME280;801;47.982;7.810;2023-09-19T04:08:34;98498.31;;;17.57;100.00
1616;BME280;801;47.982;7.810;2023-09-19T04:11:02;98493.72;;;17.57;100.00
1616;BME280;801;47.982;7.810;2023-09-19T04:13:30;98504.94;;;17.64;100.00
1616;BME280;801;47.982;7.810;2023-09-19T04:16:02;98510.38;;;17.64;100.00
1616;BME280;801;47.982;7.810;2023-09-19T04:18:30;98493.44;;;17.68;100.00
1616;BME280;801;47.982;7.810;2023-09-19T04:20:58;98493.22;;;17.55;100.00
1616;BME280;801;47.982;7.810;2023-09-19T04:23:27;98499.16;;;17.57;100.00
1616;BME280;801;47.982;7.810;2023-09-19T04:25:56;98507.16;;;17.62;100.00
1616;BME280;801;47.982;7.810;2023-09-19T04:28:25;98504.31;;;17.68;100.00
1616;BME280;801;47.982;7.810;2023-09-19T04:30:53;98512.47;;;17.68;100.00
1616;BME280;801;47.982;7.810;2023-09-19T04:33:20;98524.81;;;17.74;100.00
1616;BME280;801;47.982;7.810;2023-09-19T04:35:49;98523.84;;;17.70;100.00
1616;BME280;801;47.982;7.810;2023-09-19T04:38:15;98520.63;;;17.68;100.00
1616;BME280;801;47.982;7.810;2023-09-19T04:40:45;98531.75;;;17.57;100.00
1616;BME280;801;47.982;7.810;2023-09-19T04:43:19;98529.41;;;17.64;100.00
1616;BME280;801;47.982;7.810;2023-09-19T04:45:50;98537.28;;;17.75;100.00
1616;BME280;801;47.982;7.810;2023-09-19T04:48:21;98528.28;;;17.66;100.00
1616;BME280;801;47.982;7.810;2023-09-19T04:50:49;98533.72;;;17.66;100.00
1616;BME280;801;47.982;7.810;2023-09-19T04:53:16;98534.09;;;17.73;100.00
1616;BME280;801;47.982;7.810;2023-09-19T04:55:43;98546.00;;;17.63;100.00
1616;BME280;801;47.982;7.810;2023-09-19T04:58:09;98542.19;;;17.64;100.00
1616;BME280;801;47.982;7.810;2023-09-19T05:00:37;98548.41;;;17.64;100.00
1616;BME280;801;47.982;7.810;2023-09-19T05:03:04;98547.41;;;17.60;100.00
1616;BME280;801;47.982;7.810;2023-09-19T05:05:31;98537.06;;;17.62;100.00
1616;BME280;801;47.982;7.810;2023-09-19T05:08:00;98547.19;;;17.71;100.00
1616;BME280;801;47.982;7.810;2023-09-19T05:10:30;98553.22;;;17.68;100.00
1616;BME280;801;47.982;7.810;2023-09-19T05:12:56;98551.44;;;17.63;100.00
1616;BME280;801;47.982;7.810;2023-09-19T05:15:23;98553.06;;;17.64;100.00
1616;BME280;801;47.982;7.810;2023-09-19T05:17:57;98558.00;;;17.62;100.00
1616;BME280;801;47.982;7.810;2023-09-19T05:20:24;98554.41;;;17.75;100.00
1616;BME280;801;47.982;7.810;2023-09-19T05:22:57;98556.56;;;17.64;100.00
1616;BME280;801;47.982;7.810;2023-09-19T05:25:23;98553.22;;;17.68;100.00
1616;BME280;801;47.982;7.810;2023-09-19T05:27:52;98552.50;;;17.76;100.00
1616;BME280;801;47.982;7.810;2023-09-19T05:30:19;98564.09;;;17.68;100.00
1616;BME280;801;47.982;7.810;2023-09-19T05:32:47;98564.22;;;17.62;100.00
1616;BME280;801;47.982;7.810;2023-09-19T05:35:16;98571.53;;;17.76;100.00
1616;BME280;801;47.982;7.810;2023-09-19T05:37:43;98576.97;;;17.76;100.00
1616;BME280;801;47.982;7.810;2023-09-19T05:40:10;98585.03;;;17.67;100.00
1616;BME280;801;47.982;7.810;2023-09-19T05:42:40;98583.91;;;17.68;100.00
1616;BME280;801;47.982;7.810;2023-09-19T05:45:09;98586.84;;;17.72;100.00
1616;BME280;801;47.982;7.810;2023-09-19T05:47:38;98596.00;;;17.76;100.00
1616;BME280;801;47.982;7.810;2023-09-19T05:50:06;98592.16;;;17.77;100.00
1616;BME280;801;47.982;7.810;2023-09-19T05:52:35;98597.41;;;17.73;100.00
1616;BME280;801;47.982;7.810;2023-09-19T05:55:03;98598.63;;;17.67;100.00
1616;BME280;801;47.982;7.810;2023-09-19T05:57:30;98607.28;;;17.69;100.00
1616;BME280;801;47.982;7.810;2023-09-19T05:59:57;98602.03;;;17.73;100.00
1616;BME280;801;47.982;7.810;2023-09-19T06:02:24;98602.22;;;17.76;100.00
1616;BME280;801;47.982;7.810;2023-09-19T06:04:52;98598.69;;;17.76;100.00
1616;BME280;801;47.982;7.810;2023-09-19T06:07:20;98608.16;;;17.78;100.00
1616;BME280;801;47.982;7.810;2023-09-19T06:09:48;98610.97;;;17.87;100.00
1616;BME280;801;47.982;7.810;2023-09-19T06:12:15;98611.16;;;17.77;100.00
1616;BME280;801;47.982;7.810;2023-09-19T06:14:42;98617.59;;;17.81;100.00
1616;BME280;801;47.982;7.810;2023-09-19T06:17:09;98620.84;;;17.83;100.00
1616;BME280;801;47.982;7.810;2023-09-19T06:19:35;98623.22;;;17.98;100.00
1616;BME280;801;47.982;7.810;2023-09-19T06:22:02;98632.53;;;17.70;100.00
1616;BME280;801;47.982;7.810;2023-09-19T06:24:29;98629.88;;;17.92;100.00
1616;BME280;801;47.982;7.810;2023-09-19T06:26:57;98625.22;;;17.93;100.00
1616;BME280;801;47.982;7.810;2023-09-19T06:29:27;98632.72;;;17.87;100.00
1616;BME280;801;47.982;7.810;2023-09-19T06:31:53;98636.94;;;17.93;100.00
1616;BME280;801;47.982;7.810;2023-09-19T06:34:20;98637.16;;;17.83;100.00
1616;BME280;801;47.982;7.810;2023-09-19T06:36:47;98638.34;;;17.77;100.00
1616;BME280;801;47.982;7.810;2023-09-19T06:39:14;98642.00;;;17.86;100.00
1616;BME280;801;47.982;7.810;2023-09-19T06:41:41;98646.56;;;17.99;100.00
1616;BME280;801;47.982;7.810;2023-09-19T06:44:09;98641.06;;;17.91;100.00
1616;BME280;801;47.982;7.810;2023-09-19T06:46:36;98647.31;;;17.91;100.00
1616;BME280;801;47.982;7.810;2023-09-19T06:49:06;98640.56;;;17.89;100.00
1616;BME280;801;47.982;7.810;2023-09-19T06:51:32;98650.81;;;17.92;100.00
1616;BME280;801;47.982;7.810;2023-09-19T06:54:02;98652.88;;;17.86;100.00
1616;BME280;801;47.982;7.810;2023-09-19T06:56:30;98661.91;;;17.81;100.00
1616;BME280;801;47.982;7.810;2023-09-19T06:58:57;98658.59;;;17.84;100.00
1616;BME280;801;47.982;7.810;2023-09-19T07:01:25;98666.25;;;17.82;100.00
1616;BME280;801;47.982;7.810;2023-09-19T07:03:52;98666.53;;;17.81;100.00
1616;BME280;801;47.982;7.810;2023-09-19T07:06:19;98664.22;;;17.88;100.00
1616;BME280;801;47.982;7.810;2023-09-19T07:08:45;98665.50;;;18.04;100.00
1616;BME280;801;47.982;7.810;2023-09-19T07:11:12;98663.56;;;18.05;100.00
1616;BME280;801;47.982;7.810;2023-09-19T07:13:39;98668.28;;;18.13;100.00
1616;BME280;801;47.982;7.810;2023-09-19T07:16:06;98666.34;;;18.14;100.00
1616;BME280;801;47.982;7.810;2023-09-19T07:18:37;98658.44;;;18.03;100.00
1616;BME280;801;47.982;7.810;2023-09-19T07:21:03;98667.84;;;18.20;100.00
1616;BME280;801;47.982;7.810;2023-09-19T07:23:31;98666.00;;;18.29;100.00
1616;BME280;801;47.982;7.810;2023-09-19T07:26:00;98670.69;;;18.15;100.00
1616;BME280;801;47.982;7.810;2023-09-19T07:28:30;98670.25;;;18.21;100.00
1616;BME280;801;47.982;7.810;2023-09-19T07:31:01;98673.09;;;18.16;100.00
1616;BME280;801;47.982;7.810;2023-09-19T07:33:28;98678.16;;;18.32;100.00
1616;BME280;801;47.982;7.810;2023-09-19T07:35:56;98672.97;;;18.44;100.00
1616;BME280;801;47.982;7.810;2023-09-19T07:38:24;98676.25;;;18.55;100.00
1616;BME280;801;47.982;7.810;2023-09-19T07:40:52;98675.66;;;18.35;100.00
1616;BME280;801;47.982;7.810;2023-09-19T07:43:18;98674.66;;;18.31;100.00
1616;BME280;801;47.982;7.810;2023-09-19T07:45:46;98675.50;;;18.18;100.00
1616;BME280;801;47.982;7.810;2023-09-19T07:48:13;98671.94;;;18.31;100.00
1616;BME280;801;47.982;7.810;2023-09-19T07:50:40;98678.31;;;18.27;100.00
1616;BME280;801;47.982;7.810;2023-09-19T07:53:10;98684.28;;;18.37;100.00
1616;BME280;801;47.982;7.810;2023-09-19T07:55:38;98694.94;;;18.48;100.00
1616;BME280;801;47.982;7.810;2023-09-19T07:58:06;98681.81;;;18.50;100.00
1616;BME280;801;47.982;7.810;2023-09-19T08:00:33;98699.13;;;18.54;100.00
1616;BME280;801;47.982;7.810;2023-09-19T08:03:00;98703.34;;;18.82;100.00
1616;BME280;801;47.982;7.810;2023-09-19T08:05:27;98702.13;;;18.97;100.00
1616;BME280;801;47.982;7.810;2023-09-19T08:07:54;98705.00;;;18.92;100.00
1616;BME280;801;47.982;7.810;2023-09-19T08:10:23;98700.66;;;18.68;100.00
1616;BME280;801;47.982;7.810;2023-09-19T08:12:52;98697.94;;;18.68;100.00
1616;BME280;801;47.982;7.810;2023-09-19T08:15:23;98707.84;;;18.87;100.00
1616;BME280;801;47.982;7.810;2023-09-19T08:17:50;98712.53;;;18.73;100.00
1616;BME280;801;47.982;7.810;2023-09-19T08:20:17;98711.03;;;18.80;100.00
1616;BME280;801;47.982;7.810;2023-09-19T08:22:47;98710.31;;;18.75;100.00
1616;BME280;801;47.982;7.810;2023-09-19T08:25:14;98710.53;;;18.78;100.00
1616;BME280;801;47.982;7.810;2023-09-19T08:27:44;98715.63;;;19.02;100.00
1616;BME280;801;47.982;7.810;2023-09-19T08:30:13;98715.63;;;19.02;100.00
1616;BME280;801;47.982;7.810;2023-09-19T08:32:40;98725.25;;;19.08;100.00
1616;BME280;801;47.982;7.810;2023-09-19T08:35:08;98723.84;;;19.11;100.00
1616;BME280;801;47.982;7.810;2023-09-19T08:37:34;98722.91;;;19.16;100.00
1616;BME280;801;47.982;7.810;2023-09-19T08:40:01;98719.28;;;19.29;100.00
1616;BME280;801;47.982;7.810;2023-09-19T08:42:27;98730.34;;;19.41;100.00
1616;BME280;801;47.982;7.810;2023-09-19T08:44:57;98732.78;;;19.43;100.00
1616;BME280;801;47.982;7.810;2023-09-19T08:47:31;98733.28;;;19.45;100.00
1616;BME280;801;47.982;7.810;2023-09-19T08:50:04;98738.66;;;19.27;100.00
1616;BME280;801;47.982;7.810;2023-09-19T08:52:41;98736.31;;;19.43;100.00
1616;BME280;801;47.982;7.810;2023-09-19T08:55:11;98734.09;;;19.54;100.00
1616;BME280;801;47.982;7.810;2023-09-19T08:57:40;98732.41;;;19.76;100.00
1616;BME280;801;47.982;7.810;2023-09-19T09:00:12;98730.03;;;19.83;100.00
1616;BME280;801;47.982;7.810;2023-09-19T09:02:43;98735.16;;;19.93;100.00
1616;BME280;801;47.982;7.810;2023-09-19T09:05:10;98728.91;;;19.93;100.00
1616;BME280;801;47.982;7.810;2023-09-19T09:07:37;98735.84;;;20.07;100.00
1616;BME280;801;47.982;7.810;2023-09-19T09:10:05;98730.22;;;20.04;100.00
1616;BME280;801;47.982;7.810;2023-09-19T09:12:33;98724.25;;;19.84;100.00
1616;BME280;801;47.982;7.810;2023-09-19T09:15:02;98736.25;;;19.75;100.00
1616;BME280;801;47.982;7.810;2023-09-19T09:17:30;98740.28;;;19.86;100.00
1616;BME280;801;47.982;7.810;2023-09-19T09:19:57;98746.41;;;19.92;100.00
1616;BME280;801;47.982;7.810;2023-09-19T09:22:23;98731.66;;;20.10;100.00
1616;BME280;801;47.982;7.810;2023-09-19T09:24:51;98730.72;;;20.15;100.00
1616;BME280;801;47.982;7.810;2023-09-19T09:27:19;98736.66;;;20.17;100.00
1616;BME280;801;47.982;7.810;2023-09-19T09:29:50;98732.63;;;20.05;100.00
1616;BME280;801;47.982;7.810;2023-09-19T09:32:20;98744.03;;;20.07;100.00
1616;BME280;801;47.982;7.810;2023-09-19T09:34:51;98736.78;;;20.11;100.00
1616;BME280;801;47.982;7.810;2023-09-19T09:37:19;98739.03;;;20.18;100.00
1616;BME280;801;47.982;7.810;2023-09-19T09:39:52;98727.50;;;20.39;100.00
1616;BME280;801;47.982;7.810;2023-09-19T09:42:32;98735.69;;;20.47;100.00
1616;BME280;801;47.982;7.810;2023-09-19T09:45:14;98735.84;;;20.68;100.00
1616;BME280;801;47.982;7.810;2023-09-19T09:47:42;98739.53;;;20.81;100.00
1616;BME280;801;47.982;7.810;2023-09-19T09:50:23;98737.28;;;20.48;100.00
1616;BME280;801;47.982;7.810;2023-09-19T09:52:54;98734.59;;;20.57;100.00
1616;BME280;801;47.982;7.810;2023-09-19T09:55:26;98734.56;;;20.83;100.00
1616;BME280;801;47.982;7.810;2023-09-19T09:58:16;98723.69;;;21.13;100.00
1616;BME280;801;47.982;7.810;2023-09-19T10:00:52;98726.44;;;21.13;100.00
1616;BME280;801;47.982;7.810;2023-09-19T10:03:30;98727.09;;;21.10;100.00
1616;BME280;801;47.982;7.810;2023-09-19T10:06:00;98735.06;;;21.24;100.00
1616;BME280;801;47.982;7.810;2023-09-19T10:08:36;98734.44;;;21.18;100.00
1616;BME280;801;47.982;7.810;2023-09-19T10:11:16;98734.31;;;21.14;100.00
1616;BME280;801;47.982;7.810;2023-09-19T10:13:45;98736.13;;;21.40;100.00
1616;BME280;801;47.982;7.810;2023-09-19T10:16:13;98739.06;;;21.26;100.00
1616;BME280;801;47.982;7.810;2023-09-19T10:18:41;98731.84;;;21.22;100.00
1616;BME280;801;47.982;7.810;2023-09-19T10:21:11;98729.44;;;21.20;100.00
1616;BME280;801;47.982;7.810;2023-09-19T10:23:40;98733.84;;;21.51;100.00
1616;BME280;801;47.982;7.810;2023-09-19T10:26:08;98729.19;;;21.51;100.00
1616;BME280;801;47.982;7.810;2023-09-19T10:28:36;98725.13;;;21.19;100.00
1616;BME280;801;47.982;7.810;2023-09-19T10:31:03;98717.34;;;21.30;100.00
1616;BME280;801;47.982;7.810;2023-09-19T10:33:36;98723.34;;;21.23;100.00
1616;BME280;801;47.982;7.810;2023-09-19T10:36:05;98716.19;;;21.40;100.00
1616;BME280;801;47.982;7.810;2023-09-19T10:38:35;98715.47;;;21.60;100.00
1616;BME280;801;47.982;7.810;2023-09-19T10:41:06;98702.34;;;21.74;100.00
1616;BME280;801;47.982;7.810;2023-09-19T10:43:34;98705.06;;;22.04;100.00
1616;BME280;801;47.982;7.810;2023-09-19T10:46:07;98699.13;;;22.44;100.00
1616;BME280;801;47.982;7.810;2023-09-19T10:48:36;98695.31;;;22.70;99.56
1616;BME280;801;47.982;7.810;2023-09-19T10:51:08;98697.59;;;22.68;96.79
1616;BME280;801;47.982;7.810;2023-09-19T10:53:44;98703.41;;;22.33;96.50
1616;BME280;801;47.982;7.810;2023-09-19T10:56:18;98707.19;;;22.20;95.78
1616;BME280;801;47.982;7.810;2023-09-19T10:58:45;98703.94;;;22.26;95.72
1616;BME280;801;47.982;7.810;2023-09-19T11:01:13;98708.78;;;22.00;92.90
1616;BME280;801;47.982;7.810;2023-09-19T11:03:41;98713.47;;;22.20;91.21
1616;BME280;801;47.982;7.810;2023-09-19T11:06:11;98705.38;;;22.03;90.81
1616;BME280;801;47.982;7.810;2023-09-19T11:08:57;98698.31;;;22.02;90.10
1616;BME280;801;47.982;7.810;2023-09-19T11:11:50;98687.97;;;22.62;89.23
1616;BME280;801;47.982;7.810;2023-09-19T11:14:37;98692.25;;;22.71;91.08
1616;BME280;801;47.982;7.810;2023-09-19T11:20:23;98697.38;;;22.73;92.98
1616;BME280;801;47.982;7.810;2023-09-19T11:23:20;98689.47;;;23.17;90.68
1616;BME280;801;47.982;7.810;2023-09-19T11:25:53;98685.34;;;23.72;87.16
1616;BME280;801;47.982;7.810;2023-09-19T11:28:31;98683.78;;;23.83;78.90
1616;BME280;801;47.982;7.810;2023-09-19T11:30:58;98689.84;;;23.65;74.96
1616;BME280;801;47.982;7.810;2023-09-19T11:33:28;98692.22;;;23.91;74.23
1616;BME280;801;47.982;7.810;2023-09-19T11:36:04;98692.91;;;23.63;71.70
1616;BME280;801;47.982;7.810;2023-09-19T11:38:57;98682.53;;;23.56;69.31
1616;BME280;801;47.982;7.810;2023-09-19T11:41:40;98680.59;;;23.45;71.93
1616;BME280;801;47.982;7.810;2023-09-19T11:44:33;98681.94;;;23.88;66.02
1616;BME280;801;47.982;7.810;2023-09-19T11:47:02;98682.75;;;23.39;64.27
1616;BME280;801;47.982;7.810;2023-09-19T11:49:30;98676.91;;;23.53;64.74
1616;BME280;801;47.982;7.810;2023-09-19T11:51:58;98673.13;;;23.82;63.55
1616;BME280;801;47.982;7.810;2023-09-19T11:54:27;98667.53;;;23.66;62.55
1616;BME280;801;47.982;7.810;2023-09-19T11:57:00;98665.00;;;23.98;59.62
1616;BME280;801;47.982;7.810;2023-09-19T11:59:29;98670.22;;;24.03;61.11
1616;BME280;801;47.982;7.810;2023-09-19T12:01:57;98669.69;;;24.26;59.86
1616;BME280;801;47.982;7.810;2023-09-19T12:04:34;98650.63;;;24.17;58.71
1616;BME280;801;47.982;7.810;2023-09-19T12:07:03;98654.41;;;24.12;58.68
1616;BME280;801;47.982;7.810;2023-09-19T12:09:34;98659.22;;;24.72;56.68
1616;BME280;801;47.982;7.810;2023-09-19T12:12:02;98664.63;;;23.99;53.16
1616;BME280;801;47.982;7.810;2023-09-19T12:14:29;98649.47;;;24.46;54.70
1616;BME280;801;47.982;7.810;2023-09-19T12:17:00;98650.22;;;24.59;54.50
1616;BME280;801;47.982;7.810;2023-09-19T12:19:29;98649.44;;;24.58;53.92
1616;BME280;801;47.982;7.810;2023-09-19T12:21:59;98644.59;;;24.99;52.76
1616;BME280;801;47.982;7.810;2023-09-19T12:24:29;98642.28;;;25.01;53.24
1616;BME280;801;47.982;7.810;2023-09-19T12:27:02;98642.47;;;25.24;51.84
1616;BME280;801;47.982;7.810;2023-09-19T12:29:41;98643.44;;;25.32;52.85
1616;BME280;801;47.982;7.810;2023-09-19T12:32:08;98638.56;;;25.25;52.42
1616;BME280;801;47.982;7.810;2023-09-19T12:34:35;98637.28;;;25.55;52.38
1616;BME280;801;47.982;7.810;2023-09-19T12:37:08;98623.13;;;25.72;52.19
1616;BME280;801;47.982;7.810;2023-09-19T12:39:42;98633.41;;;25.08;49.83
1616;BME280;801;47.982;7.810;2023-09-19T12:42:14;98635.81;;;25.25;48.11
1616;BME280;801;47.982;7.810;2023-09-19T12:44:42;98630.66;;;25.24;49.67
1616;BME280;801;47.982;7.810;2023-09-19T12:47:14;98630.16;;;25.54;50.07
1616;BME280;801;47.982;7.810;2023-09-19T12:50:07;98638.56;;;25.10;48.27
1616;BME280;801;47.982;7.810;2023-09-19T12:52:39;98628.09;;;24.99;50.25
1616;BME280;801;47.982;7.810;2023-09-19T12:55:06;98621.44;;;25.00;54.01
1616;BME280;801;47.982;7.810;2023-09-19T12:57:36;98618.50;;;25.09;53.73
1616;BME280;801;47.982;7.810;2023-09-19T13:00:05;98605.03;;;24.56;56.17
1616;BME280;801;47.982;7.810;2023-09-19T13:02:32;98614.19;;;24.32;58.13
1616;BME280;801;47.982;7.810;2023-09-19T13:04:59;98612.56;;;24.75;58.92
1616;BME280;801;47.982;7.810;2023-09-19T13:07:51;98607.00;;;25.19;56.92
1616;BME280;801;47.982;7.810;2023-09-19T13:10:22;98619.16;;;25.54;54.19
1616;BME280;801;47.982;7.810;2023-09-19T13:12:51;98616.34;;;25.50;53.37
1616;BME280;801;47.982;7.810;2023-09-19T13:15:18;98611.25;;;25.01;55.67
1616;BME280;801;47.982;7.810;2023-09-19T13:17:47;98604.50;;;24.51;54.79
1616;BME280;801;47.982;7.810;2023-09-19T13:20:22;98590.78;;;24.22;58.52
1616;BME280;801;47.982;7.810;2023-09-19T13:22:53;98590.75;;;24.67;59.09
1616;BME280;801;47.982;7.810;2023-09-19T13:25:23;98594.78;;;24.41;61.53
1616;BME280;801;47.982;7.810;2023-09-19T13:27:53;98593.16;;;24.68;59.12
1616;BME280;801;47.982;7.810;2023-09-19T13:30:22;98587.91;;;25.11;59.25
1616;BME280;801;47.982;7.810;2023-09-19T13:32:50;98585.25;;;26.04;55.65
1616;BME280;801;47.982;7.810;2023-09-19T13:35:18;98590.63;;;25.42;52.82
1616;BME280;801;47.982;7.810;2023-09-19T13:37:46;98587.75;;;25.74;54.20
1616;BME280;801;47.982;7.810;2023-09-19T13:40:17;98591.22;;;25.52;51.89
1616;BME280;801;47.982;7.810;2023-09-19T13:42:43;98586.19;;;25.38;51.35
1616;BME280;801;47.982;7.810;2023-09-19T13:45:12;98590.75;;;25.65;50.85
1616;BME280;801;47.982;7.810;2023-09-19T13:47:42;98577.75;;;25.46;51.30
1616;BME280;801;47.982;7.810;2023-09-19T13:50:09;98573.59;;;25.92;50.27
1616;BME280;801;47.982;7.810;2023-09-19T13:52:44;98559.59;;;26.43;48.82